Frankfort, MI

7:39 AM EDT on October 17, 2017 (GMT -0400)
Frankfort

Weather History for KFKS - December, 2012

Change the Weather History Date:

Monday, December 3, 2012

  Actual Average (KMBL) Record (KMBL)
Temperature  
Mean Temperature 49 °F -  
Max Temperature 63 °F 35 °F 62 °F (1951)
Min Temperature 35 °F 25 °F 2 °F (1976)
Degree Days  
Heating Degree Days 16    
Moisture  
Dew Point 47 °F    
Average Humidity 88    
Maximum Humidity 94    
Minimum Humidity 81    
Precipitation  
Precipitation 0.00 in - - ()
Sea Level Pressure  
Sea Level Pressure 29.87 in    
Wind  
Wind Speed 8 mph (SSE)    
Max Wind Speed 21 mph    
Max Gust Speed 33 mph    
Visibility 6 miles    
Events Rain    
Averages and records for this station are not official NWS values.
T = Trace of Precipitation, MM = Missing Value Source: NWS Daily Summary

Daily Weather History Graph

Daily Weather History Graph

Search for Another Location

Airport or City:

Trip Planner

Search our weather history database for the weather conditions in past years. The results will help you decide how hot, cold, wet, or windy it might be!

Date:

Astronomy

Dec. 03, 2012 Rise Set
Actual Time 8:04 AM EST 5:05 PM EST
Civil Twilight 7:31 AM EST 5:38 PM EST
Nautical Twilight 6:54 AM EST 6:14 PM EST
Astronomical Twilight 6:19 AM EST 6:49 PM EST
Moon 9:58 PM EST (12/3) 11:21 AM EST (12/3)
Length of Visible Light 10h 06m
Length of Day
9h 00m
Waning Gibbous, 78% of the Moon is Illuminated
Dec 3
Waning Gibbous
Dec 6
Last Quarter
Dec 13
New
Dec 20
First Quarter
Dec 28
Full

Hourly Weather History & Observations

Time (EST) Temp. Windchill Dew Point Humidity Pressure Visibility Wind Dir Wind Speed Gust Speed Precip Events Conditions
12:12 AM 40.6 °F 38.6 °F 36.0 °F 83% 30.08 in 10.0 mi SSE 3.5 mph - N/A   Overcast
12:32 AM 40.6 °F 38.6 °F 36.1 °F 84% 30.08 in 10.0 mi South 3.5 mph - N/A   Overcast
12:52 AM 40.6 °F 37.5 °F 36.5 °F 85% 30.08 in 10.0 mi SSW 4.6 mph - N/A   Overcast
1:12 AM 40.5 °F 35.8 °F 36.5 °F 86% 30.08 in 10.0 mi South 6.9 mph - N/A   Overcast
1:32 AM 40.3 °F 38.2 °F 36.5 °F 86% 30.08 in 10.0 mi South 3.5 mph - N/A   Overcast
1:53 AM 40.3 °F 37.1 °F 36.5 °F 86% 30.08 in 10.0 mi SSE 4.6 mph - N/A   Overcast
2:13 AM 40.3 °F 37.1 °F 36.7 °F 87% 30.08 in 10.0 mi SSE 4.6 mph - N/A   Overcast
2:33 AM 40.5 °F 37.3 °F 36.9 °F 87% 30.08 in 10.0 mi SSE 4.6 mph - N/A   Overcast
2:53 AM 39.9 °F 36.7 °F 36.5 °F 88% 30.07 in 7.0 mi SSE 4.6 mph - N/A   Mostly Cloudy
3:13 AM 38.8 °F 36.5 °F 36.0 °F 89% 30.07 in 7.0 mi ENE 3.5 mph - N/A   Scattered Clouds
3:33 AM 37.6 °F - 35.2 °F 91% 30.06 in 5.0 mi Calm Calm - N/A   Clear
3:53 AM 35.6 °F - 33.6 °F 92% 30.04 in 4.0 mi Calm Calm - N/A   Clear
4:13 AM 35.8 °F - 34.2 °F 94% 30.04 in 4.0 mi Calm Calm - N/A   Clear
4:33 AM 35.8 °F 33.0 °F 34.3 °F 94% 30.04 in 4.0 mi SE 3.5 mph - N/A   Clear
4:54 AM 37.0 °F 31.6 °F 35.4 °F 94% 30.03 in 5.0 mi SE 6.9 mph - N/A   Clear
5:14 AM 40.3 °F 35.5 °F 37.9 °F 91% 30.02 in 5.0 mi ESE 6.9 mph - N/A   Clear
5:34 AM 41.2 °F 37.3 °F 38.5 °F 90% 30.01 in 5.0 mi ESE 5.8 mph - N/A   Mostly Cloudy
5:54 AM 42.8 °F 39.3 °F 39.2 °F 87% 30.01 in 5.0 mi SE 5.8 mph - N/A   Overcast
6:14 AM 43.3 °F 39.9 °F 39.7 °F 87% 30.01 in 5.0 mi SE 5.8 mph - N/A   Overcast
6:34 AM 44.1 °F 41.5 °F 40.5 °F 87% 30.00 in 5.0 mi SE 4.6 mph - N/A   Overcast
6:54 AM 44.8 °F 41.0 °F 41.5 °F 88% 30.00 in 4.0 mi SE 6.9 mph - N/A   Overcast
7:14 AM 45.5 °F 42.5 °F 42.3 °F 88% 30.00 in 4.0 mi ESE 5.8 mph - N/A   Overcast
7:35 AM 45.1 °F 40.8 °F 42.1 °F 89% 29.98 in 4.0 mi ESE 8.1 mph - N/A   Overcast
8:15 AM 45.7 °F 41.0 °F 42.3 °F 88% 29.98 in 4.0 mi ESE 9.2 mph - N/A   Overcast
8:35 AM 46.2 °F 43.3 °F 42.8 °F 88% 29.97 in 3.0 mi ESE 5.8 mph - N/A   Overcast
8:55 AM 47.5 °F - 44.2 °F 89% 29.96 in 4.0 mi SE 8.1 mph - N/A   Overcast
9:15 AM 49.1 °F - 45.7 °F 88% 29.96 in 3.0 mi SSE 12.7 mph 17.3 mph N/A   Overcast
9:35 AM 49.5 °F - 46.4 °F 89% 29.95 in 3.0 mi SE 10.4 mph - N/A   Overcast
9:56 AM 49.6 °F - 46.4 °F 89% 29.94 in 3.0 mi SE 11.5 mph 17.3 mph N/A   Overcast
10:16 AM 50.0 °F - 46.8 °F 89% 29.94 in 3.0 mi SE 13.8 mph 19.6 mph N/A   Overcast
10:36 AM 50.2 °F - 47.3 °F 90% 29.93 in 3.0 mi SSE 16.1 mph 25.3 mph N/A   Overcast
10:56 AM 50.2 °F - 47.7 °F 91% 29.92 in 2.5 mi SSE 15.0 mph 20.7 mph N/A   Overcast
11:36 AM 51.6 °F - 48.7 °F 90% 29.90 in 3.0 mi SSE 16.1 mph 24.2 mph N/A   Overcast
11:56 AM 52.0 °F - 49.1 °F 90% 29.88 in 4.0 mi SSE 16.1 mph 21.9 mph N/A   Overcast
12:16 PM 52.7 °F - 49.6 °F 89% 29.87 in 4.0 mi SSE 12.7 mph 19.6 mph N/A   Overcast
12:37 PM 53.4 °F - 50.4 °F 89% 29.86 in 4.0 mi SSE 12.7 mph 18.4 mph N/A   Overcast
12:52 PM 53.8 °F - 50.9 °F 90% 29.85 in 5.0 mi SSE 13.8 mph 17.3 mph N/A   Overcast
1:12 PM 54.5 °F - 51.6 °F 90% 29.84 in 4.0 mi SSE 13.8 mph 19.6 mph N/A   Overcast
2:12 PM 55.4 °F - 52.9 °F 91% 29.80 in 3.0 mi South 13.8 mph 19.6 mph N/A   Overcast
2:32 PM 56.3 °F - 53.6 °F 91% 29.79 in 5.0 mi South 13.8 mph 20.7 mph N/A   Overcast
2:52 PM 57.2 °F - 54.0 °F 89% 29.78 in 7.0 mi SSE 16.1 mph 21.9 mph N/A   Overcast
3:12 PM 57.4 °F - 54.5 °F 90% 29.76 in 5.0 mi SSE 15.0 mph 24.2 mph N/A   Overcast
3:33 PM 57.9 °F - 54.5 °F 88% 29.75 in 7.0 mi South 12.7 mph 24.2 mph N/A   Overcast
3:53 PM 57.7 °F - 54.7 °F 90% 29.75 in 5.0 mi SSE 13.8 mph 19.6 mph N/A   Overcast
4:13 PM 57.7 °F - 54.9 °F 90% 29.75 in 4.0 mi SSE 15.0 mph 24.2 mph N/A   Overcast
4:53 PM 57.9 °F - 55.2 °F 91% 29.74 in 4.0 mi SSE 16.1 mph 21.9 mph N/A   Overcast
5:13 PM 58.1 °F - 55.6 °F 91% 29.73 in 7.0 mi SSE 13.8 mph 25.3 mph N/A   Overcast
5:33 PM 58.5 °F - 55.8 °F 91% 29.74 in 5.0 mi South 9.2 mph 23.0 mph N/A   Overcast
5:54 PM 59.2 °F - 56.5 °F 91% 29.73 in 7.0 mi South 13.8 mph 20.7 mph N/A   Overcast
6:14 PM 59.5 °F - 56.8 °F 91% 29.73 in 3.0 mi South 13.8 mph 24.2 mph N/A   Overcast
6:34 PM 59.9 °F - 57.2 °F 91% 29.72 in 7.0 mi South 15.0 mph 23.0 mph N/A   Overcast
6:54 PM 60.1 °F - 57.2 °F 90% 29.71 in 7.0 mi SSE 12.7 mph - N/A   Overcast
7:14 PM 60.8 °F - 57.6 °F 89% 29.70 in 7.0 mi South 12.7 mph 24.2 mph N/A   Overcast
7:34 PM 61.9 °F - 58.1 °F 87% 29.70 in 7.0 mi South 13.8 mph 25.3 mph N/A   Overcast
7:54 PM 62.8 °F - 58.1 °F 85% 29.70 in 10.0 mi South 17.3 mph 27.6 mph N/A   Overcast
8:14 PM 63.1 °F - 58.1 °F 84% 29.68 in 10.0 mi South 19.6 mph 25.3 mph N/A Rain Light Rain
8:34 PM 62.4 °F - 57.0 °F 82% 29.68 in 10.0 mi South 17.3 mph 29.9 mph N/A   Overcast
8:54 PM 61.3 °F - 55.8 °F 82% 29.68 in 10.0 mi South 20.7 mph 33.4 mph N/A   Overcast
9:15 PM 61.9 °F - 56.3 °F 82% 29.67 in 10.0 mi South 15.0 mph 28.8 mph N/A   Overcast
9:35 PM 61.3 °F - 55.6 °F 81% 29.67 in 10.0 mi South 17.3 mph 27.6 mph N/A   Mostly Cloudy
9:55 PM 59.5 °F - 54.5 °F 83% 29.67 in 10.0 mi SSW 17.3 mph 31.1 mph N/A   Mostly Cloudy
10:15 PM 58.1 °F - 53.4 °F 84% 29.68 in 10.0 mi SSW 18.4 mph 31.1 mph N/A   Overcast
10:35 PM 56.3 °F - 52.7 °F 88% 29.68 in 10.0 mi South 15.0 mph 27.6 mph N/A   Overcast
10:55 PM 55.8 °F - 52.0 °F 87% 29.69 in 10.0 mi SSW 17.3 mph 25.3 mph N/A   Overcast
11:15 PM 55.6 °F - 51.8 °F 87% 29.70 in 7.0 mi SW 16.1 mph 26.5 mph N/A Rain Light Rain
11:35 PM 54.1 °F - 50.7 °F 88% 29.71 in 7.0 mi SW 12.7 mph 21.9 mph N/A   Overcast
11:55 PM 52.7 °F - 50.0 °F 91% 29.73 in 7.0 mi SW 11.5 mph 17.3 mph N/A Rain Light Rain